createdAt,value
2023-03-12T00:01:46.158Z,49.54
2023-03-12T00:04:48.326Z,48.59
2023-03-12T00:07:50.950Z,48.31
2023-03-12T00:10:53.264Z,49.43
2023-03-12T00:13:57.712Z,49.30
2023-03-12T00:16:59.841Z,49.85
2023-03-12T00:20:02.261Z,49.16
2023-03-12T00:23:05.015Z,49.22
2023-03-12T00:26:10.055Z,48.61
2023-03-12T00:29:12.452Z,50.58
2023-03-12T00:32:15.305Z,50.46
2023-03-12T00:35:17.443Z,51.19
2023-03-12T00:38:20.064Z,51.51
2023-03-12T00:41:24.121Z,56.92
2023-03-12T00:44:26.345Z,59.38
2023-03-12T00:47:28.502Z,59.46
2023-03-12T00:50:31.705Z,59.07
2023-03-12T00:53:34.205Z,59.71
2023-03-12T00:56:36.379Z,59.20
2023-03-12T00:59:40.505Z,59.78
2023-03-12T01:02:43.253Z,59.23
2023-03-12T01:05:45.730Z,59.54
2023-03-12T01:08:47.977Z,58.13
2023-03-12T01:11:50.543Z,58.51
2023-03-12T01:14:52.708Z,58.52
2023-03-12T01:17:54.886Z,59.09
2023-03-12T01:20:57.421Z,57.92
2023-03-12T01:23:59.558Z,58.03
2023-03-12T01:27:01.683Z,56.38
2023-03-12T01:30:05.342Z,56.46
2023-03-12T01:33:07.563Z,56.08
2023-03-12T01:36:17.001Z,56.07
2023-03-12T01:39:19.269Z,57.48
2023-03-12T01:42:21.983Z,57.78
2023-03-12T01:46:01.518Z,59.98
2023-03-12T01:49:32.135Z,61.57
2023-03-12T01:52:37.467Z,61.62
2023-03-12T01:55:40.553Z,61.50
2023-03-12T01:58:49.391Z,61.28
2023-03-12T02:01:52.757Z,61.00
2023-03-12T02:05:56.920Z,61.45
2023-03-12T02:09:02.296Z,58.50
2023-03-12T02:12:06.702Z,54.92
2023-03-12T02:15:09.611Z,55.89
2023-03-12T02:18:16.346Z,55.25
2023-03-12T02:21:25.866Z,55.59
2023-03-12T02:24:37.190Z,55.38
2023-03-12T02:27:40.737Z,54.63
2023-03-12T02:30:47.437Z,56.24
2023-03-12T02:33:49.908Z,56.76
2023-03-12T02:36:52.517Z,56.54
2023-03-12T02:40:34.129Z,56.55
2023-03-12T02:43:37.789Z,55.82
2023-03-12T02:46:50.894Z,56.18
2023-03-12T02:49:53.155Z,57.29
2023-03-12T02:52:55.299Z,57.74
2023-03-12T02:55:57.619Z,57.13
2023-03-12T02:59:02.054Z,56.69
2023-03-12T03:02:07.083Z,56.65
2023-03-12T03:05:11.036Z,56.59
2023-03-12T03:08:14.351Z,57.30
2023-03-12T03:11:16.512Z,57.29
2023-03-12T03:14:19.083Z,56.42
2023-03-12T03:17:25.499Z,56.19
2023-03-12T03:20:28.120Z,57.52
2023-03-12T03:23:30.492Z,56.50
2023-03-12T03:26:32.691Z,57.45
2023-03-12T03:29:35.201Z,57.45
2023-03-12T03:32:38.871Z,58.65
2023-03-12T03:35:41.833Z,58.06
2023-03-12T03:38:49.279Z,57.91
2023-03-12T03:41:52.316Z,58.03
2023-03-12T03:44:58.356Z,57.38
2023-03-12T03:48:00.769Z,57.07
2023-03-12T03:51:06.205Z,55.94
2023-03-12T03:54:11.579Z,56.21
2023-03-12T03:57:14.662Z,57.94
2023-03-12T04:00:18.277Z,57.81
2023-03-12T04:03:23.551Z,59.44
2023-03-12T04:06:25.933Z,57.99
2023-03-12T04:09:28.244Z,59.08
2023-03-12T04:12:30.487Z,59.00
2023-03-12T04:15:32.798Z,59.75
2023-03-12T04:18:36.301Z,58.84
2023-03-12T04:21:39.760Z,57.71
2023-03-12T04:24:42.894Z,57.38
2023-03-12T04:27:45.183Z,55.70
2023-03-12T04:31:00.564Z,56.49
2023-03-12T04:34:07.409Z,55.80
2023-03-12T04:37:13.884Z,55.29
2023-03-12T04:40:19.313Z,55.82
2023-03-12T04:43:21.660Z,55.73
2023-03-12T04:46:24.852Z,55.95
2023-03-12T04:49:27.235Z,57.96
2023-03-12T04:52:30.658Z,59.22
2023-03-12T04:55:32.804Z,59.17
2023-03-12T04:58:36.002Z,60.76
2023-03-12T05:01:38.514Z,58.70
2023-03-12T05:04:47.672Z,59.07
2023-03-12T05:07:50.336Z,58.89
2023-03-12T05:10:53.029Z,60.14
2023-03-12T05:13:55.438Z,60.64
2023-03-12T05:16:58.637Z,61.18
2023-03-12T05:20:01.112Z,60.19
2023-03-12T05:23:03.566Z,60.76
2023-03-12T05:26:06.818Z,60.71
2023-03-12T05:29:09.893Z,58.01
2023-03-12T05:32:13.127Z,58.31
2023-03-12T05:35:15.476Z,56.49
2023-03-12T05:38:19.590Z,57.13
2023-03-12T05:41:27.465Z,53.61
2023-03-12T05:44:35.543Z,53.85
2023-03-12T05:47:37.848Z,55.58
2023-03-12T05:50:40.515Z,54.41
2023-03-12T05:53:42.964Z,56.08
2023-03-12T05:56:47.332Z,54.63
2023-03-12T05:59:49.856Z,56.35
2023-03-12T06:02:52.298Z,54.37
2023-03-12T06:05:56.326Z,53.12
2023-03-12T06:08:59.890Z,52.91
2023-03-12T06:12:02.257Z,52.00
2023-03-12T06:15:05.477Z,50.85
2023-03-12T06:18:07.791Z,50.86
2023-03-12T06:21:17.891Z,51.16
2023-03-12T06:24:20.652Z,51.55
2023-03-12T06:27:25.714Z,50.98
2023-03-12T06:30:29.871Z,51.26
2023-03-12T06:33:32.169Z,50.27
2023-03-12T06:36:34.497Z,50.52
2023-03-12T06:39:45.517Z,50.92
2023-03-12T06:42:47.751Z,51.47
2023-03-12T06:45:49.820Z,52.00
2023-03-12T06:48:51.951Z,52.24
2023-03-12T06:51:54.420Z,52.53
2023-03-12T06:54:56.512Z,51.41
2023-03-12T06:57:58.602Z,52.29
2023-03-12T07:01:01.009Z,52.97
2023-03-12T07:04:03.196Z,53.61
2023-03-12T07:07:05.327Z,53.61
2023-03-12T07:10:07.960Z,53.14
2023-03-12T07:13:10.676Z,52.38
2023-03-12T07:16:13.075Z,52.91
2023-03-12T07:19:16.231Z,50.04
2023-03-12T07:22:18.888Z,50.45
2023-03-12T07:25:22.164Z,48.95
2023-03-12T07:28:24.391Z,48.91
2023-03-12T07:31:26.592Z,49.66
2023-03-12T07:34:28.820Z,49.01
2023-03-12T07:37:31.094Z,49.13
2023-03-12T07:40:33.653Z,48.66
2023-03-12T07:43:36.120Z,48.29
2023-03-12T07:46:38.253Z,49.08
2023-03-12T07:49:41.904Z,47.33
2023-03-12T07:52:45.017Z,46.93
2023-03-12T07:55:48.295Z,46.70
2023-03-12T07:58:50.818Z,46.82
2023-03-12T08:01:54.249Z,47.71
2023-03-12T08:04:56.540Z,47.13
2023-03-12T08:07:59.278Z,47.98
2023-03-12T08:11:03.797Z,48.70
2023-03-12T08:14:05.934Z,47.77
2023-03-12T08:17:08.128Z,49.02
2023-03-12T08:20:11.483Z,45.95
2023-03-12T08:23:13.581Z,45.76
2023-03-12T08:26:15.694Z,45.81
2023-03-12T08:29:17.897Z,44.41
2023-03-12T08:32:20.222Z,45.11
2023-03-12T08:35:22.451Z,44.80
2023-03-12T08:38:24.851Z,44.97
2023-03-12T08:41:26.978Z,45.18
2023-03-12T08:44:29.147Z,45.09
2023-03-12T08:47:31.283Z,43.28
2023-03-12T08:51:04.363Z,43.14
2023-03-12T08:54:06.555Z,44.71
2023-03-12T08:57:08.766Z,43.52
2023-03-12T09:00:15.114Z,43.97
2023-03-12T09:03:18.133Z,43.48
2023-03-12T09:06:20.533Z,42.92
2023-03-12T09:09:22.793Z,44.05
2023-03-12T09:12:25.238Z,43.14
2023-03-12T09:15:27.614Z,42.44
2023-03-12T09:18:30.328Z,42.33
2023-03-12T09:21:32.702Z,42.80
2023-03-12T09:24:35.811Z,41.86
2023-03-12T09:27:44.263Z,41.19
2023-03-12T09:30:46.944Z,39.25
2023-03-12T09:33:49.029Z,40.62
2023-03-12T09:36:52.229Z,41.45
2023-03-12T09:39:54.441Z,41.98
2023-03-12T09:43:00.389Z,39.81
2023-03-12T09:46:04.339Z,38.24
2023-03-12T09:49:16.503Z,38.75
2023-03-12T09:52:27.913Z,39.02
2023-03-12T09:55:38.173Z,39.52
2023-03-12T09:58:42.581Z,38.33
2023-03-12T10:01:50.983Z,38.54
2023-03-12T10:05:05.484Z,40.54
2023-03-12T10:08:28.435Z,39.49
2023-03-12T10:11:53.216Z,40.08
2023-03-12T10:15:43.183Z,38.22
2023-03-12T10:18:58.484Z,39.64
2023-03-12T10:22:21.670Z,39.48
2023-03-12T10:25:53.590Z,37.52
2023-03-12T10:29:10.338Z,37.64
2023-03-12T10:32:48.564Z,39.13
2023-03-12T10:35:52.827Z,36.85
2023-03-12T10:38:55.326Z,36.78
2023-03-12T10:42:00.535Z,36.58
2023-03-12T10:45:17.440Z,39.55
2023-03-12T10:48:25.918Z,37.05
2023-03-12T10:51:27.960Z,36.71
2023-03-12T10:54:35.923Z,38.69
2023-03-12T10:57:42.016Z,37.13
2023-03-12T11:00:56.873Z,39.58
2023-03-12T11:04:30.438Z,37.98
2023-03-12T11:07:35.493Z,36.37
2023-03-12T11:10:43.404Z,37.42
2023-03-12T11:13:45.524Z,38.08
2023-03-12T11:16:48.177Z,37.33
2023-03-12T11:19:50.588Z,36.55
2023-03-12T11:22:52.674Z,39.89
2023-03-12T11:25:59.440Z,39.40
2023-03-12T11:29:07.114Z,38.69
2023-03-12T11:32:18.250Z,38.18
2023-03-12T11:35:34.130Z,39.35
2023-03-12T11:38:41.625Z,41.40
2023-03-12T11:41:55.988Z,39.18
2023-03-12T11:45:36.816Z,38.47
2023-03-12T11:48:51.152Z,38.62
2023-03-12T11:52:23.117Z,39.15
2023-03-12T11:56:02.579Z,37.80
2023-03-12T11:59:10.552Z,39.28
2023-03-12T12:03:02.464Z,39.08
2023-03-12T12:06:11.855Z,40.34
2023-03-12T12:09:32.994Z,39.88
2023-03-12T12:13:03.056Z,40.65
2023-03-12T12:16:11.032Z,38.75
2023-03-12T12:19:44.743Z,38.83
2023-03-12T12:22:59.103Z,37.81
2023-03-12T12:26:14.041Z,38.50
2023-03-12T12:29:25.102Z,38.34
2023-03-12T12:32:55.210Z,40.27
2023-03-12T12:35:57.702Z,37.13
2023-03-12T12:39:10.397Z,38.38
2023-03-12T12:42:18.229Z,40.71
2023-03-12T12:45:24.304Z,39.28
2023-03-12T12:48:34.099Z,39.92
2023-03-12T12:51:48.118Z,39.03
2023-03-12T12:55:09.900Z,38.97
2023-03-12T12:58:27.325Z,39.08
2023-03-12T13:01:31.599Z,40.62
2023-03-12T13:04:37.471Z,40.13
2023-03-12T13:07:39.520Z,39.69
2023-03-12T13:10:52.994Z,40.06
2023-03-12T13:14:02.820Z,38.71
2023-03-12T13:17:56.804Z,38.27
2023-03-12T13:21:19.801Z,38.43
2023-03-12T13:24:31.488Z,38.13
2023-03-12T13:27:39.539Z,37.51
2023-03-12T13:30:51.077Z,38.14
2023-03-12T13:34:09.028Z,38.27
2023-03-12T13:37:48.469Z,37.55
2023-03-12T13:41:02.162Z,37.33
2023-03-12T13:44:22.818Z,36.80
2023-03-12T13:47:37.549Z,37.70
2023-03-12T13:50:54.678Z,36.74
2023-03-12T13:54:01.710Z,36.14
2023-03-12T13:57:12.169Z,37.01
2023-03-12T14:00:36.721Z,35.94
2023-03-12T14:03:49.695Z,36.92
2023-03-12T14:07:16.056Z,36.60
2023-03-12T14:10:33.733Z,36.31
2023-03-12T14:13:35.750Z,36.62
2023-03-12T14:16:47.144Z,35.22
2023-03-12T14:19:57.025Z,35.46
2023-03-12T14:23:07.856Z,36.08
2023-03-12T14:26:29.156Z,36.11
2023-03-12T14:29:43.830Z,36.55
2023-03-12T14:32:48.253Z,36.34
2023-03-12T14:36:01.782Z,36.47
2023-03-12T14:39:21.862Z,36.41
2023-03-12T14:42:35.615Z,36.45
2023-03-12T14:45:40.939Z,36.38
2023-03-12T14:48:43.693Z,37.69
2023-03-12T14:51:46.193Z,36.66
2023-03-12T14:54:59.735Z,37.81
2023-03-12T14:58:07.182Z,37.53
2023-03-12T15:01:15.135Z,37.53
2023-03-12T15:04:23.365Z,37.98
2023-03-12T15:07:35.344Z,37.11
2023-03-12T15:10:39.756Z,37.40
2023-03-12T15:13:43.035Z,37.72
2023-03-12T15:16:46.011Z,36.82
2023-03-12T15:19:50.394Z,37.11
2023-03-12T15:22:54.027Z,37.25
2023-03-12T15:26:21.134Z,37.32
2023-03-12T15:29:28.705Z,38.27
2023-03-12T15:32:32.022Z,38.48
2023-03-12T15:35:36.075Z,38.20
2023-03-12T15:38:49.880Z,38.47
2023-03-12T15:41:53.926Z,38.70
2023-03-12T15:45:05.077Z,37.96
2023-03-12T15:48:25.651Z,38.81
2023-03-12T15:51:30.530Z,38.84
2023-03-12T15:54:33.215Z,37.99
2023-03-12T15:57:49.436Z,38.46
2023-03-12T16:00:53.541Z,38.58
2023-03-12T16:03:55.962Z,38.78
2023-03-12T16:06:58.359Z,39.70
2023-03-12T16:10:01.105Z,39.01
2023-03-12T16:13:05.077Z,39.32
2023-03-12T16:16:07.585Z,39.57
2023-03-12T16:19:14.687Z,39.91
2023-03-12T16:22:17.878Z,39.33
2023-03-12T16:25:20.646Z,39.78
2023-03-12T16:28:23.930Z,40.06
2023-03-12T16:31:26.373Z,40.07
2023-03-12T16:34:28.876Z,40.88
2023-03-12T16:37:32.135Z,40.18
2023-03-12T16:40:39.199Z,40.81
2023-03-12T16:43:45.651Z,40.45
2023-03-12T16:46:48.512Z,39.86
2023-03-12T16:49:50.636Z,40.25
2023-03-12T16:52:53.524Z,40.06
2023-03-12T16:56:01.364Z,40.61
2023-03-12T16:59:06.944Z,41.44
2023-03-12T17:02:16.554Z,42.33
2023-03-12T17:05:18.908Z,42.02
2023-03-12T17:08:21.251Z,41.98
2023-03-12T17:11:27.823Z,42.25
2023-03-12T17:14:31.568Z,41.91
2023-03-12T17:17:33.888Z,42.83
2023-03-12T17:20:36.293Z,43.18
2023-03-12T17:23:39.821Z,42.92
2023-03-12T17:26:45.454Z,43.81
2023-03-12T17:29:47.945Z,44.18
2023-03-12T17:32:52.141Z,44.08
2023-03-12T17:36:03.140Z,44.16
2023-03-12T17:39:05.815Z,43.16
2023-03-12T17:42:08.131Z,43.67
2023-03-12T17:45:11.027Z,43.89
2023-03-12T17:48:14.623Z,44.26
2023-03-12T17:51:17.050Z,45.04
2023-03-12T17:54:19.500Z,45.34
2023-03-12T17:57:21.821Z,46.67
2023-03-12T18:00:24.808Z,46.05
2023-03-12T18:03:27.113Z,46.61
2023-03-12T18:06:29.642Z,45.50
2023-03-12T18:09:31.735Z,45.51
2023-03-12T18:12:35.203Z,44.89
2023-03-12T18:15:37.921Z,45.10
2023-03-12T18:18:41.220Z,45.99
2023-03-12T18:21:44.019Z,45.74
2023-03-12T18:24:46.588Z,45.95
2023-03-12T18:27:48.853Z,46.74
2023-03-12T18:30:51.315Z,46.94
2023-03-12T18:33:53.968Z,47.00
2023-03-12T18:36:56.175Z,46.99
2023-03-12T18:39:59.067Z,47.35
2023-03-12T18:43:01.619Z,47.38
2023-03-12T18:46:05.773Z,47.64
2023-03-12T18:49:09.210Z,48.50
2023-03-12T18:52:11.595Z,49.04
2023-03-12T18:55:16.922Z,48.68
2023-03-12T18:58:19.041Z,48.88
2023-03-12T19:01:21.761Z,48.91
2023-03-12T19:04:25.909Z,48.67
2023-03-12T19:07:28.387Z,49.19
2023-03-12T19:10:32.470Z,49.52
2023-03-12T19:13:35.532Z,49.18
2023-03-12T19:16:38.083Z,49.77
2023-03-12T19:19:40.512Z,49.20
2023-03-12T19:22:43.414Z,49.77
2023-03-12T19:25:46.348Z,49.50
2023-03-12T19:28:49.184Z,49.90
2023-03-12T19:31:52.276Z,50.09
2023-03-12T19:34:54.958Z,49.89
2023-03-12T19:37:59.594Z,50.10
2023-03-12T19:41:01.965Z,49.82
2023-03-12T19:44:04.294Z,49.94
2023-03-12T19:47:07.072Z,50.27
2023-03-12T19:50:10.928Z,51.09
2023-03-12T19:53:14.801Z,53.85
2023-03-12T19:56:18.584Z,54.09
2023-03-12T19:59:20.802Z,54.75
2023-03-12T20:02:23.358Z,55.62
2023-03-12T20:05:25.865Z,55.53
2023-03-12T20:08:30.968Z,55.45
2023-03-12T20:11:35.773Z,56.17
2023-03-12T20:14:39.066Z,56.69
2023-03-12T20:17:42.117Z,56.62
2023-03-12T20:20:46.885Z,57.04
2023-03-12T20:23:49.254Z,56.61
2023-03-12T20:26:52.708Z,56.45
2023-03-12T20:29:54.807Z,56.12
2023-03-12T20:32:58.052Z,57.74
2023-03-12T20:36:00.510Z,57.28
2023-03-12T20:39:02.952Z,57.14
2023-03-12T20:42:05.187Z,56.66
2023-03-12T20:45:08.021Z,56.65
2023-03-12T20:48:11.042Z,56.61
2023-03-12T20:51:13.136Z,56.75
2023-03-12T20:54:16.512Z,56.97
2023-03-12T20:57:18.876Z,56.45
2023-03-12T21:00:22.800Z,56.88
2023-03-12T21:03:25.680Z,56.72
2023-03-12T21:06:28.830Z,56.97
2023-03-12T21:09:31.290Z,57.18
2023-03-12T21:12:33.575Z,57.47
2023-03-12T21:15:37.640Z,56.99
2023-03-12T21:18:40.581Z,58.19
2023-03-12T21:21:43.169Z,57.98
2023-03-12T21:24:45.447Z,58.65
2023-03-12T21:27:51.000Z,58.00
2023-03-12T21:30:55.284Z,58.38
2023-03-12T21:33:58.192Z,58.50
2023-03-12T21:37:00.502Z,56.16
2023-03-12T21:40:03.388Z,56.22
2023-03-12T21:43:05.898Z,56.14
2023-03-12T21:46:12.597Z,55.93
2023-03-12T21:49:17.992Z,56.09
2023-03-12T21:52:20.569Z,56.39
2023-03-12T21:55:22.686Z,56.40
2023-03-12T21:58:25.983Z,56.09
2023-03-12T22:01:28.730Z,55.46
2023-03-12T22:04:31.598Z,55.88
2023-03-12T22:07:33.683Z,55.98
2023-03-12T22:10:39.272Z,55.81
2023-03-12T22:13:41.345Z,55.78
2023-03-12T22:16:43.456Z,55.63
2023-03-12T22:19:45.709Z,57.07
2023-03-12T22:22:48.144Z,56.46
2023-03-12T22:25:50.758Z,56.63
2023-03-12T22:28:55.303Z,56.33
2023-03-12T22:31:57.470Z,56.84
2023-03-12T22:34:59.534Z,57.01
2023-03-12T22:38:01.581Z,57.81
2023-03-12T22:41:18.843Z,57.45
2023-03-12T22:44:20.977Z,57.66
2023-03-12T22:47:23.514Z,57.57
2023-03-12T22:50:25.828Z,58.81
2023-03-12T22:53:30.256Z,58.58
2023-03-12T22:56:32.405Z,58.83
2023-03-12T22:59:34.516Z,59.18
2023-03-12T23:02:37.430Z,58.54
2023-03-12T23:05:39.516Z,60.68
2023-03-12T23:08:42.247Z,59.53
2023-03-12T23:11:44.455Z,60.21
2023-03-12T23:14:49.610Z,60.06
2023-03-12T23:17:51.757Z,60.39
2023-03-12T23:21:10.425Z,60.14
2023-03-12T23:24:12.586Z,58.49
2023-03-12T23:27:14.723Z,59.24
2023-03-12T23:30:17.490Z,58.86
2023-03-12T23:33:19.560Z,58.44
2023-03-12T23:36:23.139Z,58.68
2023-03-12T23:39:25.333Z,57.96
2023-03-12T23:42:28.180Z,56.46
2023-03-12T23:45:30.370Z,53.68
2023-03-12T23:48:34.472Z,52.61
2023-03-12T23:51:39.749Z,51.50
2023-03-12T23:54:42.927Z,50.96
2023-03-12T23:57:45.080Z,50.63
